Time;durP1;ratioP1;P1;durP2;ratioP2;P2;SDS_P1;SDS_P2;PMS_P1;PMS_P2;Temp;Humidity;BMP_temperature;BMP_pressure;BME280_temperature;BME280_humidity;BME280_pressure;Samples;Min_cycle;Max_cycle;Signal;HPM_P1;HPM_P2
2022/05/25 00:00:26;;;;;;;5.10;1.70;;;;;;;11.74;89.71;100666.66;5053134;28;20440;-65
2022/05/25 00:02:53;;;;;;;2.33;1.60;;;;;;;11.62;90.23;100659.84;5053064;28;20445;-66
2022/05/25 00:05:21;;;;;;;2.03;1.37;;;;;;;11.60;89.78;100662.09;5053202;28;20446;-66
2022/05/25 00:07:47;;;;;;;1.83;1.60;;;;;;;11.55;91.77;100673.06;5053018;28;20536;-66
2022/05/25 00:10:14;;;;;;;3.67;1.87;;;;;;;11.59;92.54;100670.50;5053186;28;20449;-66
2022/05/25 00:12:42;;;;;;;1.83;1.43;;;;;;;11.52;94.00;100676.38;5052704;28;20492;-66
2022/05/25 00:15:11;;;;;;;1.83;1.43;;;;;;;11.57;93.83;100678.16;5052666;28;20450;-66
2022/05/25 00:17:38;;;;;;;6.27;1.60;;;;;;;11.55;93.60;100672.22;5052911;28;20473;-67
2022/05/25 00:20:05;;;;;;;3.90;1.70;;;;;;;11.48;94.15;100685.41;5053211;28;20470;-66
2022/05/25 00:22:41;;;;;;;3.27;2.27;;;;;;;11.54;93.73;100684.19;5053074;28;20450;-67
2022/05/25 00:25:09;;;;;;;4.93;2.10;;;;;;;11.52;93.72;100681.00;5052731;28;20480;-67
2022/05/25 00:27:35;;;;;;;2.43;1.83;;;;;;;11.49;94.25;100687.03;5052737;28;20482;-68
2022/05/25 00:30:03;;;;;;;3.73;1.93;;;;;;;11.45;94.49;100686.81;5052884;28;20453;-66
2022/05/25 00:32:30;;;;;;;3.40;2.00;;;;;;;11.45;94.11;100692.25;5053055;28;20434;-66
2022/05/25 00:34:57;;;;;;;3.00;1.93;;;;;;;11.42;94.35;100689.31;5052762;28;20516;-67
2022/05/25 00:37:23;;;;;;;2.50;1.40;;;;;;;11.41;94.42;100690.44;5052332;28;21041;-66
2022/05/25 00:39:50;;;;;;;2.43;1.77;;;;;;;11.40;94.19;100683.41;5052742;28;20445;-66
2022/05/25 00:42:16;;;;;;;5.13;2.43;;;;;;;11.45;93.85;100688.72;5052756;28;20851;-67
2022/05/25 00:44:43;;;;;;;3.07;2.53;;;;;;;11.41;94.18;100685.81;5052854;28;20442;-65
2022/05/25 00:47:15;;;;;;;2.57;2.10;;;;;;;11.30;92.08;100684.44;5052286;28;20540;-67
2022/05/25 00:49:42;;;;;;;1.77;1.27;;;;;;;11.24;91.10;100674.78;5052834;28;20484;-64
2022/05/25 00:52:11;;;;;;;3.23;1.63;;;;;;;11.19;91.34;100677.63;5052501;28;20948;-66
2022/05/25 00:54:41;;;;;;;6.33;2.27;;;;;;;11.14;91.39;100683.94;5052506;28;20943;-67
2022/05/25 00:57:12;;;;;;;3.60;1.70;;;;;;;11.07;90.80;100670.00;5052541;28;20462;-66
2022/05/25 00:59:47;;;;;;;2.90;1.77;;;;;;;10.94;90.87;100670.81;5053099;28;20434;-66
2022/05/25 01:02:15;;;;;;;2.17;1.77;;;;;;;10.92;92.51;100679.22;5055986;28;20414;-66
2022/05/25 01:04:41;;;;;;;3.43;1.90;;;;;;;10.95;93.91;100675.13;5056269;28;20434;-65
2022/05/25 01:07:27;;;;;;;2.20;1.73;;;;;;;11.03;94.19;100679.84;5056118;28;20559;-66
2022/05/25 01:10:07;;;;;;;2.83;1.80;;;;;;;10.97;94.62;100681.03;5056166;28;20497;-67
2022/05/25 01:12:46;;;;;;;4.10;1.47;;;;;;;10.95;94.58;100672.41;5056129;28;20520;-67
2022/05/25 01:15:22;;;;;;;2.93;1.73;;;;;;;10.96;94.46;100671.31;5056077;28;20791;-67
2022/05/25 01:18:04;;;;;;;2.73;2.07;;;;;;;11.01;94.49;100668.47;5056180;28;20480;-65
2022/05/25 01:20:37;;;;;;;1.60;1.30;;;;;;;11.04;94.68;100670.59;5055627;28;20859;-67
2022/05/25 01:23:39;;;;;;;2.87;1.70;;;;;;;11.02;94.39;100668.19;5055980;28;20434;-66
2022/05/25 01:26:38;;;;;;;1.97;1.70;;;;;;;10.95;94.25;100684.06;5032786;28;20470;-66
2022/05/25 01:29:12;;;;;;;2.73;1.70;;;;;;;10.92;94.00;100679.22;5042389;28;20461;-66
2022/05/25 01:31:47;;;;;;;2.50;2.10;;;;;;;10.88;94.29;100682.84;5055955;28;20430;-66
2022/05/25 01:34:21;;;;;;;3.20;2.10;;;;;;;10.88;93.95;100682.84;5055784;28;20430;-66
2022/05/25 01:36:56;;;;;;;3.10;2.10;;;;;;;10.89;93.71;100679.00;5055301;28;20473;-67
2022/05/25 01:39:27;;;;;;;3.37;2.33;;;;;;;10.86;94.13;100670.41;5055680;28;20517;-66
2022/05/25 01:41:57;;;;;;;1.87;1.53;;;;;;;10.84;92.14;100664.47;5055596;28;20427;-66
2022/05/25 01:44:27;;;;;;;3.03;2.07;;;;;;;10.84;90.94;100672.59;5055836;28;20434;-66
2022/05/25 01:46:59;;;;;;;2.67;1.90;;;;;;;10.78;90.88;100678.41;5055335;28;20490;-66
2022/05/25 01:49:33;;;;;;;1.63;1.33;;;;;;;10.70;90.99;100684.53;5055468;28;20841;-66
2022/05/25 01:52:04;;;;;;;4.23;2.10;;;;;;;10.69;91.21;100682.94;5055272;28;20794;-66
2022/05/25 01:54:34;;;;;;;2.73;2.37;;;;;;;10.68;90.57;100689.47;5055319;28;20438;-66
2022/05/25 01:57:06;;;;;;;3.30;1.67;;;;;;;10.68;91.32;100690.25;5055096;28;21041;-67
2022/05/25 01:59:32;;;;;;;3.67;2.33;;;;;;;10.72;92.02;100699.41;5055251;28;20441;-67
2022/05/25 02:04:49;;;;;;;2.60;2.03;;;;;;;10.82;92.61;100695.69;5055065;28;20410;-68
2022/05/25 02:07:37;;;;;;;2.30;1.90;;;;;;;10.79;93.35;100696.28;5055021;28;20462;-68
2022/05/25 02:10:16;;;;;;;1.37;1.17;;;;;;;10.77;94.33;100693.88;5055071;28;20430;-67
2022/05/25 02:12:58;;;;;;;5.60;2.00;;;;;;;10.79;94.46;100699.00;5053688;28;20896;-67
2022/05/25 02:15:31;;;;;;;5.10;2.50;;;;;;;10.70;94.87;100698.88;5054906;28;20422;-68
2022/05/25 02:18:05;;;;;;;2.67;1.73;;;;;;;10.80;94.39;100704.13;5054767;28;20533;-67
2022/05/25 02:20:37;;;;;;;2.20;1.50;;;;;;;10.82;94.12;100707.31;5054937;28;20821;-68
2022/05/25 02:23:09;;;;;;;1.87;1.50;;;;;;;10.76;94.39;100703.13;5054809;28;20423;-68
2022/05/25 02:25:42;;;;;;;2.43;1.70;;;;;;;10.68;95.23;100706.50;5054679;28;20433;-68
2022/05/25 02:28:14;;;;;;;2.47;1.97;;;;;;;10.79;94.46;100702.50;5054810;28;20484;-68
2022/05/25 02:30:46;;;;;;;2.10;1.47;;;;;;;10.70;94.95;100712.41;5054799;28;20422;-68
2022/05/25 02:33:20;;;;;;;2.70;2.20;;;;;;;10.76;93.28;100715.88;5054715;28;20426;-68
2022/05/25 02:35:48;;;;;;;3.47;2.00;;;;;;;10.65;92.51;100725.25;5054353;28;20482;-67
2022/05/25 02:38:15;;;;;;;3.93;1.57;;;;;;;10.64;91.45;100726.38;5054545;28;20471;-68
2022/05/25 02:40:42;;;;;;;2.30;1.80;;;;;;;10.65;91.04;100711.72;5054390;28;20438;-67
2022/05/25 02:43:10;;;;;;;3.53;1.77;;;;;;;10.54;90.91;100716.53;5054461;28;20449;-68
2022/05/25 02:45:38;;;;;;;2.10;1.40;;;;;;;10.57;90.01;100713.19;5053904;28;20818;-68
2022/05/25 02:48:06;;;;;;;3.23;1.83;;;;;;;10.49;90.23;100724.72;5054285;28;20446;-68
2022/05/25 02:50:33;;;;;;;2.63;2.00;;;;;;;10.51;90.57;100728.75;5054116;28;20446;-69
2022/05/25 02:53:00;;;;;;;2.50;1.80;;;;;;;10.54;92.25;100727.34;5054272;28;20446;-68
2022/05/25 02:55:26;;;;;;;2.73;1.53;;;;;;;10.61;93.48;100733.97;5053761;28;20439;-69
2022/05/25 02:57:53;;;;;;;2.37;2.00;;;;;;;10.64;94.61;100737.19;5054095;28;20485;-68
2022/05/25 03:00:19;;;;;;;2.00;1.60;;;;;;;10.60;95.57;100726.16;5054082;28;20853;-68
2022/05/25 03:02:46;;;;;;;12.53;2.17;;;;;;;10.71;95.23;100729.47;5054047;28;20450;-67
2022/05/25 03:05:13;;;;;;;2.80;2.03;;;;;;;10.71;95.95;100732.97;5054070;28;20438;-69
2022/05/25 03:07:41;;;;;;;4.30;2.10;;;;;;;10.81;95.52;100740.94;5054057;28;20458;-68
2022/05/25 03:10:08;;;;;;;5.10;1.50;;;;;;;10.86;95.58;100735.44;5054225;28;20442;-65
2022/05/25 03:12:35;;;;;;;2.57;1.80;;;;;;;10.91;95.60;100744.56;5053589;28;20820;-61
2022/05/25 03:15:02;;;;;;;9.43;2.90;;;;;;;10.96;95.65;100749.91;5053734;28;20442;-63
2022/05/25 03:17:28;;;;;;;3.30;1.97;;;;;;;11.04;95.34;100760.84;5053623;28;20513;-63
2022/05/25 03:19:57;;;;;;;3.90;2.07;;;;;;;11.05;93.53;100753.53;5053350;28;20441;-64
2022/05/25 03:22:24;;;;;;;2.43;1.90;;;;;;;11.08;93.39;100759.16;5053495;28;20496;-62
2022/05/25 03:24:53;;;;;;;2.23;1.60;;;;;;;11.06;92.35;100755.91;5053918;28;20808;-64
2022/05/25 03:27:20;;;;;;;3.43;1.97;;;;;;;10.99;92.37;100765.56;5053633;28;20497;-64
2022/05/25 03:29:46;;;;;;;2.80;2.13;;;;;;;11.01;92.23;100771.47;5053648;28;20454;-64
2022/05/25 03:32:13;;;;;;;1.97;1.50;;;;;;;11.10;92.44;100777.81;5053649;28;20434;-64
2022/05/25 03:34:40;;;;;;;2.07;1.60;;;;;;;11.12;92.04;100778.34;5053114;28;20438;-65
2022/05/25 03:37:06;;;;;;;2.00;1.60;;;;;;;11.12;92.48;100781.06;5067067;22;20473;-71
2022/05/25 03:39:33;;;;;;;2.00;1.40;;;;;;;11.22;92.57;100774.63;5033470;28;20486;-71
2022/05/25 03:42:05;;;;;;;2.50;1.70;;;;;;;11.21;95.44;100775.75;5033374;28;20443;-70
2022/05/25 03:44:32;;;;;;;2.70;1.97;;;;;;;11.38;95.28;100773.22;5033382;28;20472;-71
2022/05/25 03:46:59;;;;;;;2.13;1.70;;;;;;;11.40;96.03;100764.78;5033200;28;20439;-70
2022/05/25 03:49:26;;;;;;;2.13;1.33;;;;;;;11.35;96.84;100768.41;5033309;28;20444;-70
2022/05/25 03:51:52;;;;;;;4.37;2.73;;;;;;;11.33;97.68;100776.84;5033254;28;20486;-71
2022/05/25 03:54:19;;;;;;;6.40;1.97;;;;;;;11.53;96.54;100774.81;5033277;28;20443;-70
2022/05/25 03:56:46;;;;;;;4.50;2.10;;;;;;;11.63;96.19;100778.13;5033103;28;20493;-71
2022/05/25 03:59:13;;;;;;;3.33;1.67;;;;;;;11.73;95.69;100777.13;5033071;28;20533;-70
2022/05/25 04:01:40;;;;;;;2.17;1.63;;;;;;;11.77;95.80;100786.25;5033128;28;20447;-71
2022/05/25 04:04:06;;;;;;;2.60;1.77;;;;;;;11.78;95.84;100785.16;5032807;28;20995;-70
2022/05/25 04:06:33;;;;;;;3.93;2.03;;;;;;;11.88;95.79;100796.94;5033108;28;20498;-71
2022/05/25 04:09:00;;;;;;;3.40;2.03;;;;;;;11.89;96.05;100798.53;5032991;28;20470;-70
2022/05/25 04:11:26;;;;;;;3.47;2.20;;;;;;;11.95;95.89;100789.16;5032744;28;20937;-71
2022/05/25 04:13:53;;;;;;;3.70;2.40;;;;;;;12.05;95.45;100797.09;5033057;28;20891;-70
2022/05/25 04:16:21;;;;;;;2.93;1.67;;;;;;;12.10;94.71;100794.25;5032770;28;20941;-71
2022/05/25 04:18:47;;;;;;;3.10;2.00;;;;;;;12.03;92.94;100794.66;5032862;28;20494;-70
2022/05/25 04:21:13;;;;;;;2.00;1.60;;;;;;;12.04;92.41;100798.19;5032989;28;20439;-70
2022/05/25 04:23:40;;;;;;;2.07;1.87;;;;;;;12.09;92.13;100809.75;5032973;28;20455;-70
2022/05/25 04:26:06;;;;;;;4.47;2.50;;;;;;;12.10;92.21;100816.00;5032920;28;20829;-70
2022/05/25 04:28:33;;;;;;;2.23;1.47;;;;;;;12.13;91.65;100812.66;5032504;28;20465;-70
2022/05/25 04:31:00;;;;;;;3.63;2.20;;;;;;;12.17;91.07;100810.91;5032577;28;20862;-70
2022/05/25 04:33:29;;;;;;;3.30;2.00;;;;;;;12.23;91.50;100815.16;5032886;28;20443;-70
2022/05/25 04:35:56;;;;;;;2.53;1.93;;;;;;;12.30;92.67;100820.16;5035269;28;20458;-69
2022/05/25 04:38:22;;;;;;;3.27;2.10;;;;;;;12.40;94.21;100808.25;5036049;28;20849;-70
2022/05/25 04:40:49;;;;;;;3.13;2.10;;;;;;;12.51;94.01;100809.63;5036655;28;20462;-70
2022/05/25 04:43:18;;;;;;;6.70;4.03;;;;;;;12.54;94.67;100815.25;5036675;28;20861;-70
2022/05/25 04:45:47;;;;;;;4.37;2.33;;;;;;;12.63;94.78;100813.38;5036576;28;20447;-69
2022/05/25 04:48:15;;;;;;;2.20;1.83;;;;;;;12.75;95.06;100807.41;5036492;28;20466;-69
2022/05/25 04:50:45;;;;;;;1.80;1.50;;;;;;;12.76;95.46;100806.28;5036741;28;20446;-70
2022/05/25 04:53:15;;;;;;;7.83;1.80;;;;;;;12.80;96.14;100807.28;5036469;28;20798;-69
2022/05/25 04:58:27;;;;;;;1.77;1.60;;;;;;;13.03;95.76;100797.16;5036132;28;20477;-69
2022/05/25 05:00:54;;;;;;;3.37;2.00;;;;;;;13.06;96.43;100801.97;5036310;28;20435;-69
2022/05/25 05:03:24;;;;;;;1.90;1.50;;;;;;;13.15;96.19;100802.03;5036279;28;20443;-70
2022/05/25 05:05:52;;;;;;;2.00;1.40;;;;;;;13.30;96.16;100803.56;5035825;28;20443;-70
2022/05/25 05:08:19;;;;;;;3.07;2.37;;;;;;;13.41;95.91;100806.78;5036699;28;20817;-70
2022/05/25 05:10:45;;;;;;;4.80;2.30;;;;;;;13.49;95.58;100809.53;5038643;28;20454;-70
2022/05/25 05:13:12;;;;;;;4.20;2.50;;;;;;;13.58;94.76;100807.66;5036151;28;20446;-70
2022/05/25 05:15:40;;;;;;;3.80;2.43;;;;;;;13.63;93.00;100817.59;5036027;28;20447;-70
2022/05/25 05:18:07;;;;;;;3.40;2.20;;;;;;;13.71;91.45;100824.97;5035546;28;21000;-70
2022/05/25 05:20:35;;;;;;;4.23;1.93;;;;;;;13.73;91.25;100817.31;5035940;28;20522;-72
2022/05/25 05:23:03;;;;;;;3.77;2.13;;;;;;;13.80;91.54;100828.53;5035904;28;20443;-73
2022/05/25 05:25:29;;;;;;;5.43;3.17;;;;;;;13.89;91.42;100823.91;5035842;28;20443;-70
2022/05/25 05:28:02;;;;;;;5.37;2.73;;;;;;;14.00;90.95;100831.78;5035771;28;20467;-71
2022/05/25 05:30:30;;;;;;;3.20;2.00;;;;;;;14.11;89.68;100833.88;5035776;28;20438;-70
2022/05/25 05:32:56;;;;;;;3.27;2.30;;;;;;;14.20;89.02;100841.25;5035764;28;20442;-70
2022/05/25 05:35:24;;;;;;;3.17;1.97;;;;;;;14.28;86.49;100846.72;5035698;28;20853;-70
2022/05/25 05:37:55;;;;;;;4.03;2.23;;;;;;;14.38;86.62;100842.88;5035269;28;20558;-70
2022/05/25 05:40:23;;;;;;;1.97;1.60;;;;;;;14.48;86.87;100852.69;5035627;28;20798;-70
2022/05/25 05:42:52;;;;;;;3.20;2.33;;;;;;;14.60;85.35;100855.56;5035511;28;20447;-70
2022/05/25 05:45:21;;;;;;;2.63;1.90;;;;;;;14.68;84.22;100851.25;5035401;28;20443;-70
2022/05/25 05:47:51;;;;;;;2.37;2.10;;;;;;;14.76;83.32;100853.16;5035252;28;20459;-70
2022/05/25 05:50:18;;;;;;;4.77;2.90;;;;;;;14.84;82.00;100855.09;5035435;28;20427;-70
2022/05/25 05:52:45;;;;;;;5.10;2.23;;;;;;;14.89;82.05;100858.44;5035534;28;20434;-70
2022/05/25 05:55:13;;;;;;;4.60;3.00;;;;;;;15.03;81.78;100857.47;5035339;28;20447;-70
2022/05/25 05:57:41;;;;;;;7.50;2.60;;;;;;;15.13;81.45;100848.91;5034719;28;20502;-71
2022/05/25 06:00:11;;;;;;;3.33;2.03;;;;;;;15.21;79.89;100856.28;5035165;28;20459;-71
2022/05/25 06:02:38;;;;;;;6.20;2.37;;;;;;;15.31;79.69;100857.84;5035156;28;20439;-71
2022/05/25 06:05:05;;;;;;;3.57;2.40;;;;;;;15.36;78.74;100858.50;5034812;28;20987;-71
2022/05/25 06:07:31;;;;;;;3.97;2.43;;;;;;;15.44;78.65;100859.59;5034559;28;20471;-71
2022/05/25 06:09:58;;;;;;;2.90;2.23;;;;;;;15.54;77.79;100861.16;5035049;28;20512;-70
2022/05/25 06:12:24;;;;;;;3.93;2.17;;;;;;;15.62;75.69;100863.03;5034687;28;20443;-73
2022/05/25 06:14:52;;;;;;;3.30;2.67;;;;;;;15.58;73.88;100853.91;5034924;28;20450;-70
2022/05/25 06:20:03;;;;;;;3.00;2.30;;;;;;;15.88;75.37;100863.75;5034721;28;20469;-72
2022/05/25 06:22:31;;;;;;;2.40;2.00;;;;;;;16.05;75.48;100864.78;5034718;28;20454;-74
2022/05/25 06:24:58;;;;;;;3.50;2.43;;;;;;;16.20;75.05;100877.84;5034842;28;20443;-73
2022/05/25 06:27:24;;;;;;;3.70;2.67;;;;;;;16.31;71.72;100870.09;5034878;28;20467;-73
2022/05/25 06:29:52;;;;;;;5.67;2.63;;;;;;;16.38;71.59;100873.91;5034340;28;20975;-71
2022/05/25 06:32:22;;;;;;;3.67;2.20;;;;;;;16.37;71.49;100864.06;5034821;28;20554;-72
2022/05/25 06:34:48;;;;;;;4.83;2.50;;;;;;;16.50;72.97;100869.63;5034139;28;20482;-74
2022/05/25 06:37:17;;;;;;;5.40;2.53;;;;;;;16.64;73.51;100872.88;5034268;28;20830;-74
2022/05/25 06:39:44;;;;;;;4.60;1.97;;;;;;;16.73;71.77;100879.09;5034419;28;20463;-73
2022/05/25 06:42:10;;;;;;;2.73;1.97;;;;;;;16.77;70.62;100879.22;5034423;28;20447;-72
2022/05/25 06:44:37;;;;;;;4.17;2.03;;;;;;;16.80;69.85;100875.84;5034398;28;20447;-73
2022/05/25 06:47:06;;;;;;;3.77;2.50;;;;;;;16.84;70.24;100890.44;5034578;28;20446;-71
2022/05/25 06:49:34;;;;;;;3.50;2.27;;;;;;;16.88;70.06;100894.09;5034304;28;20439;-71
2022/05/25 06:52:00;;;;;;;3.57;2.40;;;;;;;16.93;70.31;100893.91;5034151;28;20804;-73
2022/05/25 06:54:27;;;;;;;3.73;2.23;;;;;;;16.99;69.64;100884.31;5034062;28;20439;-73
2022/05/25 06:56:53;;;;;;;2.73;2.17;;;;;;;16.98;69.12;100882.75;5034080;28;20450;-76
2022/05/25 06:59:19;;;;;;;4.23;2.07;;;;;;;17.03;69.18;100885.25;5033194;28;21019;-74
2022/05/25 07:01:46;;;;;;;3.30;1.67;;;;;;;17.11;69.86;100892.59;5033999;28;20454;-73
2022/05/25 07:04:14;;;;;;;4.33;2.40;;;;;;;17.15;70.92;100895.47;5034000;28;20505;-72
2022/05/25 07:06:41;;;;;;;4.37;2.30;;;;;;;17.27;70.14;100892.75;5039979;28;20451;-72
2022/05/25 07:09:09;;;;;;;3.80;2.20;;;;;;;17.30;70.76;100899.47;5033997;28;21047;-72
2022/05/25 07:11:35;;;;;;;3.70;2.20;;;;;;;17.23;69.90;100907.47;5033656;28;20797;-73
2022/05/25 07:14:03;;;;;;;2.33;1.70;;;;;;;17.31;70.41;100899.16;5033809;28;20447;-73
2022/05/25 07:16:31;;;;;;;3.73;2.20;;;;;;;17.36;71.71;100906.34;5033466;28;20435;-73
2022/05/25 07:18:58;;;;;;;2.43;1.73;;;;;;;17.21;70.20;100905.03;5033235;28;21030;-73
2022/05/25 07:21:30;;;;;;;2.90;2.30;;;;;;;17.33;70.95;100910.56;5033218;28;20437;-73
2022/05/25 07:23:59;;;;;;;3.60;2.37;;;;;;;17.46;69.35;100916.88;5033768;28;20435;-72
2022/05/25 07:26:27;;;;;;;3.23;2.27;;;;;;;17.50;70.07;100917.78;5033819;28;20445;-72
2022/05/25 07:28:54;;;;;;;3.60;2.00;;;;;;;17.63;69.98;100921.34;5033536;28;20463;-73
2022/05/25 07:31:24;;;;;;;3.57;2.10;;;;;;;17.73;69.12;100914.63;5033600;28;20451;-72
2022/05/25 07:33:55;;;;;;;3.60;2.00;;;;;;;17.79;69.54;100919.56;5033253;28;20420;-72
2022/05/25 07:36:24;;;;;;;2.63;1.80;;;;;;;17.83;67.74;100922.41;5033507;28;20807;-72
2022/05/25 07:38:54;;;;;;;2.80;1.97;;;;;;;17.85;68.31;100928.38;5032791;28;20573;-72
2022/05/25 07:41:21;;;;;;;5.77;2.20;;;;;;;17.84;67.74;100933.06;5033702;28;20440;-72
2022/05/25 07:43:53;;;;;;;2.33;2.13;;;;;;;18.01;67.70;100942.19;5033016;28;20526;-73
2022/05/25 07:46:20;;;;;;;2.47;2.10;;;;;;;18.14;67.23;100938.31;5033388;28;20546;-72
2022/05/25 07:48:46;;;;;;;4.13;2.50;;;;;;;18.08;66.71;100940.47;5033322;28;20477;-74
2022/05/25 07:51:13;;;;;;;3.13;1.80;;;;;;;18.05;66.99;100938.41;5033264;28;20446;-73
2022/05/25 07:53:57;;;;;;;3.40;2.60;;;;;;;18.13;67.19;100948.47;5033261;28;20447;-74
2022/05/25 07:56:27;;;;;;;2.87;1.93;;;;;;;18.19;66.79;100949.03;5033237;28;20522;-73
2022/05/25 07:58:54;;;;;;;4.10;2.30;;;;;;;18.17;65.46;100942.31;5033002;28;20900;-73
2022/05/25 08:05:43;;;;;;;2.67;1.90;;;;;;;18.24;66.75;100940.59;5033158;28;20581;-73
2022/05/25 08:06:57;;;;;;;2.97;2.20;;;;;;;18.18;65.28;100952.91;5033118;28;20509;-74
2022/05/25 08:09:24;;;;;;;3.07;2.10;;;;;;;18.25;65.39;100953.16;5033129;28;20451;-73
2022/05/25 08:11:52;;;;;;;2.07;1.73;;;;;;;18.34;66.53;100953.84;5037241;28;20438;-74
2022/05/25 08:14:19;;;;;;;2.63;2.13;;;;;;;18.43;65.47;100950.19;5037120;28;20446;-74
2022/05/25 08:16:45;;;;;;;3.50;2.10;;;;;;;18.41;64.84;100945.00;5036629;28;20861;-73
2022/05/25 08:19:12;;;;;;;3.10;1.80;;;;;;;18.32;64.75;100942.41;5037055;28;20485;-74
2022/05/25 08:21:38;;;;;;;1.90;1.63;;;;;;;18.28;65.85;100938.78;5037220;28;20538;-74
2022/05/25 08:24:05;;;;;;;2.33;1.83;;;;;;;18.23;66.22;100941.72;5036797;28;20474;-74
2022/05/25 08:26:32;;;;;;;2.77;2.20;;;;;;;18.23;68.28;100941.72;5036979;28;20454;-74
2022/05/25 08:29:00;;;;;;;4.27;2.23;;;;;;;18.30;66.72;100943.91;5036858;28;20467;-74
2022/05/25 08:31:27;;;;;;;2.93;1.80;;;;;;;18.10;65.41;100943.66;5036931;28;20443;-75
2022/05/25 08:33:53;;;;;;;2.80;1.87;;;;;;;18.09;65.78;100944.00;5036821;28;20443;-73
2022/05/25 08:36:20;;;;;;;2.30;1.30;;;;;;;18.10;65.61;100956.56;5036500;28;20497;-74
2022/05/25 08:38:46;;;;;;;2.83;2.20;;;;;;;18.10;64.12;100954.63;5036460;28;20478;-73
2022/05/25 08:41:13;;;;;;;4.23;1.90;;;;;;;17.98;65.67;100949.16;5036675;28;20431;-74
2022/05/25 08:43:43;;;;;;;2.40;1.60;;;;;;;17.72;66.49;100949.44;5036605;28;20446;-74
2022/05/25 08:46:14;;;;;;;3.73;2.27;;;;;;;17.71;66.72;100950.59;5036560;28;20450;-74
2022/05/25 08:48:41;;;;;;;3.00;1.97;;;;;;;17.69;65.98;100949.31;5036558;28;20466;-74
2022/05/25 08:51:12;;;;;;;2.80;1.47;;;;;;;17.67;66.80;100955.16;5036445;28;20442;-73
2022/05/25 08:53:39;;;;;;;4.40;2.17;;;;;;;17.72;66.92;100956.88;5036480;28;20447;-73
2022/05/25 08:56:18;;;;;;;2.53;2.10;;;;;;;17.79;65.65;100949.69;5036279;28;20948;-73
2022/05/25 08:58:48;;;;;;;6.30;1.80;;;;;;;17.82;65.06;100949.03;5036263;28;20470;-73
2022/05/25 09:01:23;;;;;;;3.33;2.43;;;;;;;17.97;63.08;100946.75;5036089;28;20961;-73
2022/05/25 09:03:56;;;;;;;4.63;2.13;;;;;;;18.12;64.36;100948.81;5041851;28;20431;-74
2022/05/25 09:06:32;;;;;;;2.63;1.63;;;;;;;18.29;62.50;100948.59;5038064;28;20431;-74
2022/05/25 09:09:04;;;;;;;4.50;1.70;;;;;;;18.44;62.84;100954.50;5036293;28;20463;-74
2022/05/25 09:11:39;;;;;;;3.10;1.97;;;;;;;18.56;61.76;100946.25;5036161;28;20435;-74
2022/05/25 09:14:14;;;;;;;4.40;1.37;;;;;;;18.70;60.62;100949.47;5036163;28;20944;-73
2022/05/25 09:16:44;;;;;;;5.13;1.47;;;;;;;18.89;58.51;100941.38;5036027;28;20461;-72
2022/05/25 09:19:17;;;;;;;1.60;1.20;;;;;;;18.97;56.69;100955.31;5035909;28;20538;-72
2022/05/25 09:21:51;;;;;;;3.07;1.60;;;;;;;18.87;55.83;100951.94;5035512;28;20435;-73
2022/05/25 09:24:21;;;;;;;1.93;1.00;;;;;;;18.85;57.33;100945.16;5035871;28;20434;-74
2022/05/25 09:26:48;;;;;;;2.87;1.60;;;;;;;18.92;59.34;100955.56;5035771;28;20475;-73
2022/05/25 09:29:15;;;;;;;2.63;1.40;;;;;;;19.01;57.60;100953.47;5035747;28;20462;-73
2022/05/25 09:31:46;;;;;;;1.60;1.37;;;;;;;19.11;57.80;100945.53;5035577;28;20937;-74
2022/05/25 09:34:23;;;;;;;1.47;1.23;;;;;;;19.17;57.29;100948.84;5035414;28;20952;-76
2022/05/25 09:36:55;;;;;;;3.00;2.07;;;;;;;19.38;56.02;100952.16;5035750;28;20450;-78
2022/05/25 09:39:25;;;;;;;1.57;1.10;;;;;;;19.46;54.69;100955.91;5035095;28;20552;-76
2022/05/25 09:41:56;;;;;;;2.27;1.20;;;;;;;19.58;53.26;100949.53;5035792;28;20439;-74
2022/05/25 09:44:23;;;;;;;3.50;1.27;;;;;;;19.56;54.31;100955.38;5035747;28;20438;-74
2022/05/25 09:46:55;;;;;;;1.63;1.20;;;;;;;19.77;52.61;100951.63;5035449;28;20435;-76
2022/05/25 09:49:35;;;;;;;1.50;1.03;;;;;;;19.94;53.00;100958.72;5035828;28;20783;-78
2022/05/25 09:52:06;;;;;;;1.67;1.27;;;;;;;19.97;52.66;100953.31;5036235;28;20439;-76
2022/05/25 09:54:36;;;;;;;1.20;1.00;;;;;;;20.00;53.22;100952.56;5035505;28;20431;-77
2022/05/25 09:57:07;;;;;;;1.37;1.10;;;;;;;19.93;53.30;100957.13;5035686;28;20493;-77
2022/05/25 09:59:37;;;;;;;2.23;1.27;;;;;;;20.01;53.21;100962.44;5036300;28;20475;-77
2022/05/25 10:02:23;;;;;;;1.97;1.40;;;;;;;20.12;51.50;100960.72;5035428;28;20427;-73
2022/05/25 10:04:54;;;;;;;1.83;1.23;;;;;;;20.18;52.46;100964.00;5035277;28;20520;-74
2022/05/25 10:07:26;;;;;;;2.17;1.00;;;;;;;20.22;52.01;100956.63;5035189;28;20471;-73
2022/05/25 10:09:54;;;;;;;2.43;1.30;;;;;;;20.44;52.97;100957.13;5034956;28;20901;-74
2022/05/25 10:12:27;;;;;;;4.20;1.23;;;;;;;20.61;51.58;100954.00;5035037;28;20447;-72
2022/05/25 10:14:59;;;;;;;2.03;1.30;;;;;;;20.63;51.76;100957.22;5035165;28;20459;-76
2022/05/25 10:17:37;;;;;;;1.50;1.40;;;;;;;20.59;51.39;100950.84;5035106;28;20832;-75
2022/05/25 10:20:18;;;;;;;1.27;0.77;;;;;;;20.71;50.12;100939.66;5035027;28;20463;-76
2022/05/25 10:22:45;;;;;;;1.80;1.20;;;;;;;20.58;50.75;100940.97;5035043;28;20852;-76
2022/05/25 10:25:23;;;;;;;3.03;1.67;;;;;;;20.42;51.42;100935.50;5034798;28;20494;-76
2022/05/25 10:27:50;;;;;;;1.57;1.07;;;;;;;20.12;53.47;100927.72;5034960;28;20470;-76
2022/05/25 10:38:46;;;;;;;2.60;1.20;;;;;;;20.36;49.48;100925.91;5034364;28;20465;-76
2022/05/25 10:44:07;;;;;;;1.23;0.80;;;;;;;20.15;50.71;100912.47;5029570;28;20450;-76
2022/05/25 10:46:34;;;;;;;2.60;1.10;;;;;;;20.09;49.89;100916.63;5034864;28;20422;-77
2022/05/25 10:49:10;;;;;;;1.90;1.10;;;;;;;20.07;50.81;100916.22;5034706;28;20467;-76
2022/05/25 10:51:43;;;;;;;1.60;0.80;;;;;;;20.29;50.94;100915.53;5035082;28;20522;-76
2022/05/25 10:57:09;;;;;;;3.30;1.10;;;;;;;20.75;48.66;100915.75;5034112;28;20419;-70
2022/05/25 10:59:46;;;;;;;1.13;0.90;;;;;;;20.90;48.18;100906.66;5034129;28;20471;-71
2022/05/25 11:02:28;;;;;;;1.97;0.87;;;;;;;21.08;48.45;100911.72;5037353;28;20462;-73
2022/05/25 11:05:18;;;;;;;1.40;0.80;;;;;;;21.32;48.67;100899.56;5034177;28;20486;-74
2022/05/25 11:07:45;;;;;;;1.23;0.90;;;;;;;21.63;47.02;100904.06;5034193;28;20549;-74
2022/05/25 11:10:36;;;;;;;1.80;1.00;;;;;;;21.77;46.68;100912.56;5033825;28;20443;-74
2022/05/25 11:13:21;;;;;;;1.50;0.90;;;;;;;21.70;46.91;100915.22;5033820;28;20434;-74
2022/05/25 11:15:56;;;;;;;2.30;1.07;;;;;;;21.34;46.38;100909.09;5033427;28;20806;-74
2022/05/25 11:18:35;;;;;;;1.40;1.10;;;;;;;21.30;46.48;100907.41;5033718;28;20481;-74
2022/05/25 11:21:16;;;;;;;0.87;0.57;;;;;;;21.27;47.76;100906.16;5033947;28;20474;-74
2022/05/25 11:24:00;;;;;;;2.13;0.80;;;;;;;21.77;48.95;100903.50;5033401;28;20431;-74
2022/05/25 11:26:45;;;;;;;2.90;1.40;;;;;;;22.50;44.40;100909.72;5033728;28;20813;-74
2022/05/25 11:29:28;;;;;;;1.30;0.97;;;;;;;22.43;44.48;100910.41;5033503;28;20477;-75
2022/05/25 11:32:00;;;;;;;1.10;0.70;;;;;;;21.99;44.91;100894.38;5033634;28;20428;-70
2022/05/25 11:34:38;;;;;;;1.03;0.70;;;;;;;21.52;46.52;100916.88;5033487;28;20527;-69
2022/05/25 11:37:23;;;;;;;1.13;0.87;;;;;;;21.15;47.64;100914.59;5033280;28;20438;-74
2022/05/25 11:40:00;;;;;;;1.87;1.27;;;;;;;20.98;47.56;100915.03;5033349;28;20478;-73
2022/05/25 11:42:53;;;;;;;1.00;0.70;;;;;;;20.95;48.57;100916.56;5033496;28;20427;-73
2022/05/25 11:45:30;;;;;;;1.33;1.00;;;;;;;20.44;55.54;100921.34;5032987;28;20477;-74
2022/05/25 11:48:16;;;;;;;1.40;0.80;;;;;;;19.36;66.44;100920.69;5033287;28;20462;-70
2022/05/25 11:50:48;;;;;;;1.63;1.13;;;;;;;19.24;71.90;100904.28;5033066;28;20893;-71
2022/05/25 11:53:38;;;;;;;1.40;1.00;;;;;;;19.35;70.30;100906.16;5033258;28;20515;-71
2022/05/25 11:56:19;;;;;;;1.70;1.03;;;;;;;20.01;73.33;100898.38;5033361;28;20440;-71
2022/05/25 11:59:05;;;;;;;6.70;1.40;;;;;;;21.14;70.31;100905.53;5033252;28;20467;-72
2022/05/25 12:01:38;;;;;;;2.47;1.50;;;;;;;21.97;58.87;100901.44;5033268;28;20467;-75
2022/05/25 12:04:26;;;;;;;1.83;1.27;;;;;;;22.67;54.92;100896.16;5033086;28;20442;-75